Time;durP1;ratioP1;P1;durP2;ratioP2;P2;SDS_P1;SDS_P2;PMS_P1;PMS_P2;Temp;Humidity;BMP_temperature;BMP_pressure;BME280_temperature;BME280_humidity;BME280_pressure;Samples;Min_cycle;Max_cycle;Signal;HPM_P1;HPM_P2
2023/10/30 00:00:45;;;;;;;41.08;23.58;;;;;;;;;;5116840;27;20031;-61
2023/10/30 00:03:13;;;;;;;30.13;21.27;;;;;;;;;;5110009;27;20055;-62
2023/10/30 00:05:40;;;;;;;33.15;20.77;;;;;;;;;;5114571;27;20027;-61
2023/10/30 00:08:06;;;;;;;27.90;18.67;;;;;;;;;;5118129;27;20123;-61
2023/10/30 00:10:32;;;;;;;31.77;20.30;;;;;;;;;;5119882;27;20027;-61
2023/10/30 00:12:58;;;;;;;29.75;20.50;;;;;;;;;;5118307;27;20031;-62
2023/10/30 00:15:25;;;;;;;30.25;18.98;;;;;;;;;;5104428;27;20193;-64
2023/10/30 00:17:52;;;;;;;33.00;18.92;;;;;;;;;;5114480;27;20254;-61
2023/10/30 00:20:18;;;;;;;35.53;21.90;;;;;;;;;;5101291;27;20188;-61
2023/10/30 00:22:45;;;;;;;32.30;21.85;;;;;;;;;;5121393;27;20019;-61
2023/10/30 00:25:11;;;;;;;27.63;20.10;;;;;;;;;;5115692;27;20058;-61
2023/10/30 00:27:37;;;;;;;29.52;18.33;;;;;;;;;;5115231;27;20026;-61
2023/10/30 00:30:03;;;;;;;27.10;18.65;;;;;;;;;;5115057;27;20434;-62
2023/10/30 00:32:30;;;;;;;30.00;18.70;;;;;;;;;;5115828;27;20023;-61
2023/10/30 00:34:57;;;;;;;28.67;19.23;;;;;;;;;;5097407;28;20024;-62
2023/10/30 00:37:23;;;;;;;29.65;18.67;;;;;;;;;;5110750;27;20050;-61
2023/10/30 00:39:49;;;;;;;26.30;17.05;;;;;;;;;;5107786;27;20034;-61
2023/10/30 00:42:15;;;;;;;26.95;16.63;;;;;;;;;;5112440;27;20046;-62
2023/10/30 00:44:41;;;;;;;22.10;14.75;;;;;;;;;;5117531;27;20058;-62
2023/10/30 00:47:07;;;;;;;19.88;13.52;;;;;;;;;;5110487;27;20047;-61
2023/10/30 00:49:33;;;;;;;21.65;12.73;;;;;;;;;;5118398;27;20402;-62
2023/10/30 00:52:00;;;;;;;19.83;12.95;;;;;;;;;;5114048;27;20233;-61
2023/10/30 00:54:26;;;;;;;25.98;14.10;;;;;;;;;;5120569;27;20023;-61
2023/10/30 00:56:52;;;;;;;23.70;13.25;;;;;;;;;;5113691;27;20115;-62
2023/10/30 00:59:18;;;;;;;23.58;13.90;;;;;;;;;;5099444;27;20034;-61
2023/10/30 01:01:44;;;;;;;21.80;12.48;;;;;;;;;;5116947;27;20072;-61
2023/10/30 01:04:10;;;;;;;19.20;12.75;;;;;;;;;;5115555;27;20038;-61
2023/10/30 01:06:36;;;;;;;20.02;11.48;;;;;;;;;;5116007;27;20038;-61
2023/10/30 01:09:02;;;;;;;16.65;10.95;;;;;;;;;;5117956;27;20027;-62
2023/10/30 01:11:28;;;;;;;15.25;11.13;;;;;;;;;;5112799;27;20027;-61
2023/10/30 01:13:55;;;;;;;17.38;11.05;;;;;;;;;;5113856;27;20059;-62
2023/10/30 01:16:21;;;;;;;17.75;11.48;;;;;;;;;;5102937;27;20069;-60
2023/10/30 01:18:47;;;;;;;13.48;9.88;;;;;;;;;;5110024;27;20110;-62
2023/10/30 01:21:13;;;;;;;17.50;11.32;;;;;;;;;;5117197;27;20090;-61
2023/10/30 01:23:39;;;;;;;13.90;9.98;;;;;;;;;;5108271;27;20934;-61
2023/10/30 01:26:05;;;;;;;14.68;9.10;;;;;;;;;;5119985;27;20110;-61
2023/10/30 01:28:31;;;;;;;13.52;9.98;;;;;;;;;;5117295;27;20030;-62
2023/10/30 01:30:58;;;;;;;13.65;8.93;;;;;;;;;;5099510;27;20056;-61
2023/10/30 01:33:24;;;;;;;16.40;9.68;;;;;;;;;;5120878;27;20071;-61
2023/10/30 01:35:51;;;;;;;17.88;9.85;;;;;;;;;;5119848;27;20053;-61
2023/10/30 01:38:17;;;;;;;17.77;10.13;;;;;;;;;;5117337;27;20020;-61
2023/10/30 01:40:47;;;;;;;18.50;10.80;;;;;;;;;;5096320;27;20058;-62
2023/10/30 01:43:13;;;;;;;42.88;13.10;;;;;;;;;;5121282;27;20079;-62
2023/10/30 01:45:39;;;;;;;44.45;11.77;;;;;;;;;;5114828;27;20046;-62
2023/10/30 01:48:05;;;;;;;37.17;11.38;;;;;;;;;;5111970;27;20030;-64
2023/10/30 01:50:31;;;;;;;43.42;13.55;;;;;;;;;;5113287;27;20028;-62
2023/10/30 01:52:57;;;;;;;35.25;12.52;;;;;;;;;;5091746;27;20023;-62
2023/10/30 01:55:24;;;;;;;35.00;13.40;;;;;;;;;;5117858;27;20106;-62
2023/10/30 01:57:51;;;;;;;28.83;12.25;;;;;;;;;;5114259;27;20038;-62
2023/10/30 02:00:17;;;;;;;16.95;10.27;;;;;;;;;;5110462;27;20043;-63
2023/10/30 02:02:43;;;;;;;24.40;10.93;;;;;;;;;;5114022;28;20055;-62
2023/10/30 02:05:09;;;;;;;17.23;9.73;;;;;;;;;;5097575;28;20115;-64
2023/10/30 02:07:36;;;;;;;19.52;11.55;;;;;;;;;;5109440;27;20070;-62
2023/10/30 02:10:06;;;;;;;13.50;9.05;;;;;;;;;;5088760;28;20459;-62
2023/10/30 02:12:32;;;;;;;14.30;8.18;;;;;;;;;;5107997;28;20020;-62
2023/10/30 02:14:59;;;;;;;16.45;9.73;;;;;;;;;;5111674;28;20031;-61
2023/10/30 02:17:25;;;;;;;13.63;8.85;;;;;;;;;;5095973;28;20598;-64
2023/10/30 02:19:51;;;;;;;15.48;8.75;;;;;;;;;;5102373;28;20031;-65
2023/10/30 02:22:17;;;;;;;12.98;8.98;;;;;;;;;;5110748;27;20391;-62
2023/10/30 02:24:43;;;;;;;13.68;8.43;;;;;;;;;;5116037;27;20034;-63
2023/10/30 02:27:10;;;;;;;17.27;9.57;;;;;;;;;;5115229;27;20027;-62
2023/10/30 02:29:36;;;;;;;14.43;8.90;;;;;;;;;;5120398;28;20035;-62
2023/10/30 02:32:02;;;;;;;11.15;8.40;;;;;;;;;;5098929;28;20031;-62
2023/10/30 02:34:28;;;;;;;15.07;9.20;;;;;;;;;;5114484;27;20039;-65
2023/10/30 02:36:56;;;;;;;12.75;8.90;;;;;;;;;;5100359;28;20031;-61
2023/10/30 02:39:22;;;;;;;11.85;8.35;;;;;;;;;;5110006;28;20163;-62
2023/10/30 02:41:49;;;;;;;13.07;8.27;;;;;;;;;;5105759;27;20433;-62
2023/10/30 02:44:15;;;;;;;15.93;7.97;;;;;;;;;;5115798;28;20487;-62
2023/10/30 02:46:41;;;;;;;11.55;6.88;;;;;;;;;;5110927;28;20027;-62
2023/10/30 02:49:08;;;;;;;15.63;8.57;;;;;;;;;;5104640;27;20039;-62
2023/10/30 02:51:35;;;;;;;12.40;7.85;;;;;;;;;;5112815;28;20031;-63
2023/10/30 02:54:01;;;;;;;9.07;7.07;;;;;;;;;;5109843;27;20574;-61
2023/10/30 02:56:27;;;;;;;11.43;7.95;;;;;;;;;;5111509;28;20031;-61
2023/10/30 02:58:54;;;;;;;11.40;7.57;;;;;;;;;;5096425;27;20023;-61
2023/10/30 03:01:20;;;;;;;11.52;7.72;;;;;;;;;;5092724;27;20033;-62
2023/10/30 03:03:46;;;;;;;16.50;9.57;;;;;;;;;;5093184;27;20036;-62
2023/10/30 03:06:12;;;;;;;20.45;9.77;;;;;;;;;;5117838;27;20042;-65
2023/10/30 03:08:38;;;;;;;22.45;9.60;;;;;;;;;;5113725;27;20484;-62
2023/10/30 03:11:04;;;;;;;14.05;7.88;;;;;;;;;;5084102;27;20027;-62
2023/10/30 03:13:31;;;;;;;16.17;9.07;;;;;;;;;;5115196;27;20027;-62
2023/10/30 03:15:57;;;;;;;14.25;8.13;;;;;;;;;;5113137;27;20472;-62
2023/10/30 03:18:23;;;;;;;14.85;9.05;;;;;;;;;;5095411;27;20149;-62
2023/10/30 03:20:49;;;;;;;13.57;8.18;;;;;;;;;;5099384;27;20027;-63
2023/10/30 03:23:15;;;;;;;13.32;8.35;;;;;;;;;;5095140;27;20023;-62
2023/10/30 03:25:42;;;;;;;21.52;8.15;;;;;;;;;;5111953;27;20031;-62
2023/10/30 03:28:08;;;;;;;11.07;7.60;;;;;;;;;;5115587;27;20035;-61
2023/10/30 03:30:35;;;;;;;14.23;7.65;;;;;;;;;;5117907;27;20019;-62
2023/10/30 03:33:01;;;;;;;9.88;7.20;;;;;;;;;;5118947;27;20465;-63
2023/10/30 03:35:28;;;;;;;10.90;7.55;;;;;;;;;;5112978;27;20154;-61
2023/10/30 03:37:54;;;;;;;11.23;7.57;;;;;;;;;;5111617;27;20027;-61
2023/10/30 03:40:20;;;;;;;9.90;7.00;;;;;;;;;;5101088;27;20066;-61
2023/10/30 03:42:46;;;;;;;11.77;8.77;;;;;;;;;;5106564;27;20024;-61
2023/10/30 03:45:12;;;;;;;10.73;8.02;;;;;;;;;;5118155;27;20062;-61
2023/10/30 03:47:38;;;;;;;9.60;7.80;;;;;;;;;;5116358;27;20379;-61
2023/10/30 03:50:06;;;;;;;11.18;7.32;;;;;;;;;;5118561;27;20045;-63
2023/10/30 03:52:32;;;;;;;11.25;7.30;;;;;;;;;;5113052;27;20031;-61
2023/10/30 03:55:03;;;;;;;10.82;7.25;;;;;;;;;;5093618;27;20041;-62
2023/10/30 03:57:29;;;;;;;12.35;7.35;;;;;;;;;;5112101;27;20027;-61
2023/10/30 03:59:56;;;;;;;9.68;7.25;;;;;;;;;;5123538;27;20024;-61
2023/10/30 04:02:22;;;;;;;11.77;7.15;;;;;;;;;;5119856;27;20053;-61
2023/10/30 04:04:48;;;;;;;10.93;7.07;;;;;;;;;;5098922;27;20027;-63
2023/10/30 04:07:14;;;;;;;12.60;7.63;;;;;;;;;;5122280;27;20058;-65
2023/10/30 04:09:40;;;;;;;13.52;8.48;;;;;;;;;;5112279;27;20055;-62
2023/10/30 04:12:07;;;;;;;13.02;7.40;;;;;;;;;;5112970;27;20039;-61
2023/10/30 04:14:33;;;;;;;14.27;8.55;;;;;;;;;;5112119;27;20062;-61
2023/10/30 04:17:02;;;;;;;14.18;7.65;;;;;;;;;;5098167;28;20507;-62
2023/10/30 04:19:29;;;;;;;17.42;8.18;;;;;;;;;;5112517;27;20015;-61
2023/10/30 04:21:55;;;;;;;15.40;8.00;;;;;;;;;;5111832;27;20480;-62
2023/10/30 04:24:21;;;;;;;17.05;9.15;;;;;;;;;;5092401;28;20038;-61
2023/10/30 04:26:47;;;;;;;14.60;8.38;;;;;;;;;;5096212;27;20055;-61
2023/10/30 04:29:13;;;;;;;13.80;8.90;;;;;;;;;;5118861;27;20027;-61
2023/10/30 04:31:39;;;;;;;15.13;8.30;;;;;;;;;;5113747;27;20032;-61
2023/10/30 04:34:05;;;;;;;16.80;9.23;;;;;;;;;;5118544;27;20142;-61
2023/10/30 04:36:31;;;;;;;14.55;8.20;;;;;;;;;;5118357;27;20074;-61
2023/10/30 04:38:57;;;;;;;19.83;9.00;;;;;;;;;;5112886;27;20031;-61
2023/10/30 04:41:24;;;;;;;19.98;9.23;;;;;;;;;;5111248;27;20043;-62
2023/10/30 04:43:50;;;;;;;14.32;7.80;;;;;;;;;;5119262;27;20572;-61
2023/10/30 04:46:17;;;;;;;15.05;8.63;;;;;;;;;;5101918;27;20039;-61
2023/10/30 04:48:43;;;;;;;16.08;8.40;;;;;;;;;;5111758;27;20039;-62
2023/10/30 04:51:09;;;;;;;14.60;8.25;;;;;;;;;;5116396;27;20035;-61
2023/10/30 04:53:35;;;;;;;17.02;9.18;;;;;;;;;;5111129;27;20038;-61
2023/10/30 04:56:02;;;;;;;14.65;9.05;;;;;;;;;;5106613;27;20400;-62
2023/10/30 04:58:28;;;;;;;14.05;8.45;;;;;;;;;;5115751;27;20028;-63
2023/10/30 05:00:54;;;;;;;12.88;7.68;;;;;;;;;;5112072;27;20034;-61
2023/10/30 05:03:20;;;;;;;11.27;8.30;;;;;;;;;;5111431;27;20039;-65
2023/10/30 05:05:46;;;;;;;13.05;7.93;;;;;;;;;;5103333;27;20061;-61
2023/10/30 05:08:13;;;;;;;17.40;9.05;;;;;;;;;;5113372;27;20062;-63
2023/10/30 05:10:39;;;;;;;14.00;9.05;;;;;;;;;;5113653;27;20080;-61
2023/10/30 05:13:05;;;;;;;14.15;8.07;;;;;;;;;;5120463;27;20030;-61
2023/10/30 05:15:31;;;;;;;11.45;7.68;;;;;;;;;;5116001;27;20592;-61
2023/10/30 05:17:57;;;;;;;16.83;8.57;;;;;;;;;;5111319;27;20507;-61
2023/10/30 05:20:23;;;;;;;10.48;7.88;;;;;;;;;;5117237;27;20026;-61
2023/10/30 05:22:49;;;;;;;15.82;8.25;;;;;;;;;;5115262;27;20031;-61
2023/10/30 05:25:15;;;;;;;13.77;7.50;;;;;;;;;;5108171;27;20510;-62
2023/10/30 05:27:41;;;;;;;14.10;8.32;;;;;;;;;;5108952;27;20424;-61
2023/10/30 05:30:08;;;;;;;13.85;7.72;;;;;;;;;;5109264;27;20034;-61
2023/10/30 05:32:34;;;;;;;11.18;7.45;;;;;;;;;;5114753;27;20033;-61
2023/10/30 05:35:00;;;;;;;10.63;7.07;;;;;;;;;;5107293;27;20031;-61
2023/10/30 05:37:26;;;;;;;16.45;7.05;;;;;;;;;;5115110;27;20420;-61
2023/10/30 05:39:52;;;;;;;23.50;8.50;;;;;;;;;;5109474;27;20442;-61
2023/10/30 05:42:18;;;;;;;17.90;7.82;;;;;;;;;;5109928;27;20066;-62
2023/10/30 05:44:45;;;;;;;16.20;8.95;;;;;;;;;;5112033;27;20118;-61
2023/10/30 05:47:12;;;;;;;14.32;8.15;;;;;;;;;;5104359;27;20809;-61
2023/10/30 05:49:38;;;;;;;16.13;8.40;;;;;;;;;;5088429;27;20033;-61
2023/10/30 05:52:06;;;;;;;12.48;8.02;;;;;;;;;;5108047;27;20034;-61
2023/10/30 05:54:32;;;;;;;10.95;7.25;;;;;;;;;;5092913;27;20110;-64
2023/10/30 05:56:58;;;;;;;10.82;7.63;;;;;;;;;;5113133;27;20464;-61
2023/10/30 05:59:24;;;;;;;12.55;7.18;;;;;;;;;;5103843;27;20062;-61
2023/10/30 06:01:50;;;;;;;17.98;7.90;;;;;;;;;;5108495;27;20550;-61
2023/10/30 06:04:16;;;;;;;10.13;6.82;;;;;;;;;;5111968;27;20118;-61
2023/10/30 06:06:43;;;;;;;18.17;9.15;;;;;;;;;;5112676;28;20027;-61
2023/10/30 06:09:09;;;;;;;13.00;7.32;;;;;;;;;;5109948;27;21126;-61
2023/10/30 06:11:35;;;;;;;11.25;7.28;;;;;;;;;;5105564;27;20031;-61
2023/10/30 06:14:01;;;;;;;10.82;7.20;;;;;;;;;;5108928;27;20144;-61
2023/10/30 06:16:27;;;;;;;10.02;7.18;;;;;;;;;;5109939;28;20077;-61
2023/10/30 06:18:53;;;;;;;11.43;7.78;;;;;;;;;;5110548;27;20433;-61
2023/10/30 06:21:20;;;;;;;16.73;8.05;;;;;;;;;;5105002;27;20027;-60
2023/10/30 06:23:46;;;;;;;14.70;8.25;;;;;;;;;;5105529;27;20034;-60
2023/10/30 06:26:13;;;;;;;9.32;7.68;;;;;;;;;;5109818;27;20027;-61
2023/10/30 06:28:40;;;;;;;12.65;8.25;;;;;;;;;;5096013;28;20031;-61
2023/10/30 06:31:19;;;;;;;13.50;7.85;;;;;;;;;;5101733;27;20062;-61
2023/10/30 06:33:45;;;;;;;15.30;8.40;;;;;;;;;;5109963;27;20087;-61
2023/10/30 06:36:11;;;;;;;11.35;8.15;;;;;;;;;;5105478;27;20488;-61
2023/10/30 06:38:38;;;;;;;14.68;9.20;;;;;;;;;;5095034;27;20027;-61
2023/10/30 06:41:07;;;;;;;16.17;8.13;;;;;;;;;;5117157;27;20141;-61
2023/10/30 06:43:33;;;;;;;12.60;7.00;;;;;;;;;;5109488;27;20496;-62
2023/10/30 06:45:59;;;;;;;13.00;8.55;;;;;;;;;;5099063;27;20035;-61
2023/10/30 06:48:26;;;;;;;11.75;7.95;;;;;;;;;;5111382;27;20231;-62
2023/10/30 06:50:52;;;;;;;14.18;7.57;;;;;;;;;;5108321;27;20067;-61
2023/10/30 06:53:18;;;;;;;12.30;7.88;;;;;;;;;;5117842;27;20035;-61
2023/10/30 06:55:44;;;;;;;13.43;7.82;;;;;;;;;;5098357;27;20024;-61
2023/10/30 06:58:10;;;;;;;10.25;7.07;;;;;;;;;;5116736;27;20035;-62
2023/10/30 07:00:37;;;;;;;8.90;6.55;;;;;;;;;;5116107;27;20375;-61
2023/10/30 07:03:03;;;;;;;11.13;7.25;;;;;;;;;;5109407;27;20024;-61
2023/10/30 07:05:29;;;;;;;9.48;6.68;;;;;;;;;;5102119;27;20113;-62
2023/10/30 07:07:55;;;;;;;10.20;6.63;;;;;;;;;;5091104;27;20023;-61
2023/10/30 07:10:21;;;;;;;12.00;7.90;;;;;;;;;;5087654;27;20031;-61
2023/10/30 07:12:47;;;;;;;10.13;6.53;;;;;;;;;;5112362;27;20071;-61
2023/10/30 07:15:13;;;;;;;13.00;7.25;;;;;;;;;;5113236;27;20118;-66
2023/10/30 07:17:40;;;;;;;11.05;7.93;;;;;;;;;;5100179;27;20030;-61
2023/10/30 07:20:06;;;;;;;9.52;6.70;;;;;;;;;;5118123;27;20068;-60
2023/10/30 07:22:32;;;;;;;14.55;7.68;;;;;;;;;;5109689;27;20035;-60
2023/10/30 07:24:59;;;;;;;11.05;6.88;;;;;;;;;;5109918;27;20033;-61
2023/10/30 07:27:25;;;;;;;12.13;7.22;;;;;;;;;;5117205;27;20618;-61
2023/10/30 07:29:51;;;;;;;12.65;6.93;;;;;;;;;;5117588;27;20089;-60
2023/10/30 07:32:18;;;;;;;16.10;6.82;;;;;;;;;;5094701;27;20027;-61
2023/10/30 07:34:44;;;;;;;24.58;8.98;;;;;;;;;;5095676;28;20085;-61
2023/10/30 07:37:11;;;;;;;15.27;8.30;;;;;;;;;;5108756;27;20119;-61
2023/10/30 07:39:37;;;;;;;13.07;7.47;;;;;;;;;;5111080;27;20062;-61
2023/10/30 07:42:03;;;;;;;21.30;8.63;;;;;;;;;;5093760;27;20050;-62
2023/10/30 07:44:29;;;;;;;42.00;9.00;;;;;;;;;;5114504;27;20038;-61
2023/10/30 07:46:56;;;;;;;39.42;9.98;;;;;;;;;;5098180;27;20108;-61
2023/10/30 07:49:22;;;;;;;36.55;10.23;;;;;;;;;;5100121;28;20031;-61
2023/10/30 07:51:49;;;;;;;59.88;11.02;;;;;;;;;;5118094;27;20034;-61
2023/10/30 07:54:15;;;;;;;44.85;9.32;;;;;;;;;;5120118;27;20031;-62
2023/10/30 07:56:42;;;;;;;30.63;9.20;;;;;;;;;;5112612;27;20031;-61
2023/10/30 07:59:08;;;;;;;30.20;9.38;;;;;;;;;;5114999;27;20028;-61
2023/10/30 08:01:34;;;;;;;45.53;10.07;;;;;;;;;;5111600;27;20527;-61
2023/10/30 08:04:00;;;;;;;27.67;11.00;;;;;;;;;;5114404;27;20027;-61
2023/10/30 08:06:27;;;;;;;27.50;10.65;;;;;;;;;;5115661;27;20023;-62
2023/10/30 08:08:53;;;;;;;34.00;11.02;;;;;;;;;;5106756;27;20050;-62
2023/10/30 08:11:19;;;;;;;24.27;9.02;;;;;;;;;;5100515;27;20038;-61
2023/10/30 08:13:46;;;;;;;18.38;8.25;;;;;;;;;;5111763;27;20392;-61
2023/10/30 08:16:12;;;;;;;15.90;7.75;;;;;;;;;;5105897;27;20028;-61
2023/10/30 08:18:39;;;;;;;17.50;7.05;;;;;;;;;;5115321;27;20031;-61
2023/10/30 08:21:06;;;;;;;10.52;6.45;;;;;;;;;;5111017;27;20023;-61
2023/10/30 08:23:34;;;;;;;10.98;6.65;;;;;;;;;;5104162;27;20085;-61
2023/10/30 08:26:01;;;;;;;11.43;6.32;;;;;;;;;;5110676;27;20020;-61
2023/10/30 08:28:27;;;;;;;11.50;7.03;;;;;;;;;;5116195;27;20430;-61
2023/10/30 08:30:53;;;;;;;12.68;7.32;;;;;;;;;;5109624;27;20024;-61
2023/10/30 08:33:19;;;;;;;10.70;6.95;;;;;;;;;;5116162;27;20726;-61
2023/10/30 08:35:46;;;;;;;11.45;6.47;;;;;;;;;;5105686;27;20020;-61
2023/10/30 08:38:13;;;;;;;11.13;6.60;;;;;;;;;;5108243;27;20038;-61
2023/10/30 08:40:39;;;;;;;8.85;6.10;;;;;;;;;;5092631;27;20185;-61
2023/10/30 08:43:05;;;;;;;9.40;6.13;;;;;;;;;;5091079;27;20039;-66
2023/10/30 08:45:31;;;;;;;9.45;5.93;;;;;;;;;;5088368;27;20030;-62
2023/10/30 08:47:57;;;;;;;9.63;6.20;;;;;;;;;;5076239;27;20876;-62
2023/10/30 08:50:24;;;;;;;8.82;5.55;;;;;;;;;;5084264;28;20118;-62
2023/10/30 08:52:50;;;;;;;8.63;6.05;;;;;;;;;;5085858;27;20031;-63
2023/10/30 08:55:16;;;;;;;7.30;5.05;;;;;;;;;;5087154;27;21736;-61
2023/10/30 08:57:42;;;;;;;9.07;6.35;;;;;;;;;;5090209;27;20027;-62
2023/10/30 09:00:08;;;;;;;11.65;7.28;;;;;;;;;;5080958;27;20031;-62
2023/10/30 09:02:34;;;;;;;11.02;6.53;;;;;;;;;;5087992;27;20024;-62
2023/10/30 09:05:01;;;;;;;7.43;5.50;;;;;;;;;;5087234;27;20554;-63
2023/10/30 09:07:27;;;;;;;9.73;5.65;;;;;;;;;;5089962;27;20476;-62
2023/10/30 09:09:53;;;;;;;8.02;5.57;;;;;;;;;;5082299;27;20044;-62
2023/10/30 09:12:19;;;;;;;8.10;5.40;;;;;;;;;;5089030;28;20031;-62
2023/10/30 09:14:45;;;;;;;8.45;6.03;;;;;;;;;;5090982;28;20038;-63
2023/10/30 09:17:11;;;;;;;9.20;5.95;;;;;;;;;;5085915;27;20032;-62
2023/10/30 09:19:38;;;;;;;8.48;5.88;;;;;;;;;;5090703;27;20080;-62
2023/10/30 09:22:04;;;;;;;8.73;5.53;;;;;;;;;;5085281;27;20035;-63
2023/10/30 09:24:30;;;;;;;7.82;5.40;;;;;;;;;;5081212;27;20092;-62
2023/10/30 09:26:56;;;;;;;10.27;5.32;;;;;;;;;;5083735;28;20119;-61
2023/10/30 09:29:24;;;;;;;7.30;5.00;;;;;;;;;;5086776;27;20031;-62
2023/10/30 09:31:50;;;;;;;7.63;4.90;;;;;;;;;;5085791;27;20221;-62
2023/10/30 09:34:17;;;;;;;10.23;6.10;;;;;;;;;;5083253;27;21850;-61
2023/10/30 09:36:43;;;;;;;8.00;5.03;;;;;;;;;;5089757;28;20039;-63
2023/10/30 09:39:10;;;;;;;10.15;6.40;;;;;;;;;;5088257;28;20027;-62
2023/10/30 09:41:45;;;;;;;11.48;7.40;;;;;;;;;;5090969;28;20044;-62
2023/10/30 09:44:12;;;;;;;11.63;8.27;;;;;;;;;;5064353;28;20090;-61
2023/10/30 09:46:39;;;;;;;15.50;9.65;;;;;;;;;;5087037;28;20353;-62
2023/10/30 09:49:06;;;;;;;18.05;10.63;;;;;;;;;;5077532;28;20062;-61
2023/10/30 09:51:33;;;;;;;16.42;9.93;;;;;;;;;;5088554;28;20029;-62
2023/10/30 09:54:01;;;;;;;14.95;8.70;;;;;;;;;;5081329;28;20028;-62
2023/10/30 09:56:28;;;;;;;12.10;9.05;;;;;;;;;;5079670;28;20077;-62
2023/10/30 09:58:54;;;;;;;14.95;9.27;;;;;;;;;;5080841;28;21128;-62
2023/10/30 10:01:21;;;;;;;12.43;9.25;;;;;;;;;;5082133;28;20023;-62
2023/10/30 10:03:47;;;;;;;10.25;7.88;;;;;;;;;;5088252;28;20110;-62
2023/10/30 10:06:14;;;;;;;8.23;6.50;;;;;;;;;;5087017;28;20031;-62
2023/10/30 10:08:43;;;;;;;7.22;5.70;;;;;;;;;;5089464;28;20126;-62
2023/10/30 10:11:09;;;;;;;7.30;5.63;;;;;;;;;;5090059;28;20039;-61
2023/10/30 10:13:40;;;;;;;7.78;5.53;;;;;;;;;;5082528;28;20055;-62
2023/10/30 10:16:06;;;;;;;6.97;5.15;;;;;;;;;;5089483;27;20055;-62
2023/10/30 10:18:34;;;;;;;6.88;5.18;;;;;;;;;;5094570;27;20024;-62
2023/10/30 10:21:04;;;;;;;8.27;5.60;;;;;;;;;;5071905;28;20059;-62
2023/10/30 10:23:34;;;;;;;6.45;5.40;;;;;;;;;;5084384;28;20143;-63
2023/10/30 10:26:03;;;;;;;6.88;5.18;;;;;;;;;;5068420;28;20043;-62
2023/10/30 10:28:29;;;;;;;11.75;6.45;;;;;;;;;;5088604;28;20493;-62
2023/10/30 10:30:55;;;;;;;9.82;6.97;;;;;;;;;;5082010;28;20976;-62
2023/10/30 10:33:22;;;;;;;10.25;7.72;;;;;;;;;;5089761;28;20031;-62
2023/10/30 10:36:00;;;;;;;10.60;7.95;;;;;;;;;;5089845;28;20125;-62
2023/10/30 10:38:27;;;;;;;14.60;8.82;;;;;;;;;;5090477;28;20552;-63
2023/10/30 10:40:53;;;;;;;16.63;8.88;;;;;;;;;;5093218;27;20035;-62
2023/10/30 10:43:20;;;;;;;10.77;7.85;;;;;;;;;;5114879;27;20068;-62
2023/10/30 10:45:47;;;;;;;12.80;7.75;;;;;;;;;;5109105;27;20430;-62
2023/10/30 10:48:13;;;;;;;11.02;6.65;;;;;;;;;;5102986;27;20312;-62
2023/10/30 10:50:40;;;;;;;8.98;6.60;;;;;;;;;;5111641;27;20033;-63
2023/10/30 10:53:06;;;;;;;7.28;5.88;;;;;;;;;;5106864;27;20404;-62
2023/10/30 10:55:35;;;;;;;9.13;5.70;;;;;;;;;;5111396;27;20110;-63
2023/10/30 10:58:12;;;;;;;6.65;5.68;;;;;;;;;;5107045;27;20024;-63
2023/10/30 11:00:41;;;;;;;8.30;6.00;;;;;;;;;;5094871;27;20023;-62
2023/10/30 11:03:08;;;;;;;12.07;5.47;;;;;;;;;;5107705;27;21453;-62
2023/10/30 11:05:35;;;;;;;7.53;5.25;;;;;;;;;;5107674;27;20057;-62
2023/10/30 11:08:07;;;;;;;7.68;4.90;;;;;;;;;;5108015;27;21394;-63
2023/10/30 11:10:39;;;;;;;7.13;5.50;;;;;;;;;;5089803;27;20419;-62
2023/10/30 11:13:14;;;;;;;7.75;5.18;;;;;;;;;;5108161;27;20161;-62
2023/10/30 11:15:40;;;;;;;;;;;;;;;;;;5088670;27;20137;-62
2023/10/30 11:18:06;;;;;;;;;;;;;;;;;;5088318;27;19917;-62
2023/10/30 11:20:33;;;;;;;7.65;5.28;;;;;;;;;;5111194;27;19919;-62
2023/10/30 11:22:59;;;;;;;7.25;6.25;;;;;;;;;;5093652;27;20022;-62
2023/10/30 11:25:51;;;;;;;6.35;4.65;;;;;;;;;;5107823;27;20491;-62
2023/10/30 11:28:17;;;;;;;8.40;4.65;;;;;;;;;;5115645;27;20031;-62
2023/10/30 11:30:44;;;;;;;5.18;4.35;;;;;;;;;;5099466;27;20418;-62
2023/10/30 11:33:23;;;;;;;8.88;5.15;;;;;;;;;;5115801;27;20331;-62
2023/10/30 11:36:12;;;;;;;7.57;4.97;;;;;;;;;;5115474;27;20038;-62
2023/10/30 11:38:57;;;;;;;6.78;5.18;;;;;;;;;;5080031;27;20107;-61
2023/10/30 11:41:28;;;;;;;7.22;6.20;;;;;;;;;;5119996;27;20043;-62
2023/10/30 11:44:08;;;;;;;7.47;5.63;;;;;;;;;;5112991;27;20035;-62
2023/10/30 11:46:38;;;;;;;8.93;5.80;;;;;;;;;;5110225;27;20019;-66
2023/10/30 11:49:06;;;;;;;16.55;6.05;;;;;;;;;;5119184;27;20054;-62
2023/10/30 11:51:33;;;;;;;5.80;5.20;;;;;;;;;;5118117;27;20027;-63
2023/10/30 11:53:59;;;;;;;10.68;5.85;;;;;;;;;;5108103;27;20027;-62
2023/10/30 11:56:26;;;;;;;9.57;6.20;;;;;;;;;;5112259;27;20020;-62
2023/10/30 11:58:52;;;;;;;9.63;6.03;;;;;;;;;;5117905;27;20038;-62
2023/10/30 12:01:18;;;;;;;10.38;6.20;;;;;;;;;;5099027;27;20312;-62
2023/10/30 12:03:44;;;;;;;10.43;6.90;;;;;;;;;;5118943;27;20088;-63
2023/10/30 12:06:11;;;;;;;11.23;6.43;;;;;;;;;;5118414;27;20027;-62
2023/10/30 12:08:38;;;;;;;10.13;6.13;;;;;;;;;;5110541;27;20456;-62
2023/10/30 12:11:04;;;;;;;11.82;6.40;;;;;;;;;;5087525;27;20027;-63
2023/10/30 12:13:31;;;;;;;9.05;6.60;;;;;;;;;;5099583;27;20032;-62
2023/10/30 12:15:57;;;;;;;9.38;6.13;;;;;;;;;;5110823;27;20120;-62
2023/10/30 12:18:23;;;;;;;9.10;6.72;;;;;;;;;;5094510;27;20498;-62
2023/10/30 12:20:49;;;;;;;10.68;6.07;;;;;;;;;;5123612;27;20030;-62
2023/10/30 12:23:16;;;;;;;10.38;6.93;;;;;;;;;;5108150;27;20284;-66
2023/10/30 12:25:43;;;;;;;12.00;6.65;;;;;;;;;;5100911;27;20015;-62
2023/10/30 12:28:09;;;;;;;16.10;10.65;;;;;;;;;;5108774;27;20380;-62
2023/10/30 12:30:38;;;;;;;19.67;11.75;;;;;;;;;;5120361;27;20342;-61
2023/10/30 12:33:04;;;;;;;21.20;12.93;;;;;;;;;;5097137;28;20028;-62
2023/10/30 12:35:30;;;;;;;16.92;10.02;;;;;;;;;;5110052;27;20031;-61
2023/10/30 12:37:56;;;;;;;16.00;9.00;;;;;;;;;;5093472;28;20027;-62
2023/10/30 12:40:23;;;;;;;14.98;9.63;;;;;;;;;;5112851;27;20045;-61
2023/10/30 12:42:49;;;;;;;13.75;10.40;;;;;;;;;;5096451;27;20353;-64
2023/10/30 12:45:17;;;;;;;16.17;9.20;;;;;;;;;;5112097;27;20045;-62
2023/10/30 12:47:44;;;;;;;13.15;8.18;;;;;;;;;;5113447;27;20039;-61
2023/10/30 12:50:11;;;;;;;12.27;7.63;;;;;;;;;;5096684;27;20031;-62
2023/10/30 12:52:37;;;;;;;11.25;8.18;;;;;;;;;;5118071;27;20433;-62
2023/10/30 12:55:03;;;;;;;13.38;8.13;;;;;;;;;;5101796;27;20053;-66
2023/10/30 12:57:30;;;;;;;13.32;8.68;;;;;;;;;;5089959;28;20020;-63
2023/10/30 12:59:56;;;;;;;11.45;7.55;;;;;;;;;;5109919;27;20624;-62
2023/10/30 13:02:23;;;;;;;15.35;8.30;;;;;;;;;;5112335;27;20556;-62
2023/10/30 13:04:49;;;;;;;13.18;7.90;;;;;;;;;;5116018;27;20038;-62
2023/10/30 13:07:15;;;;;;;12.93;7.95;;;;;;;;;;5112530;27;20126;-63
2023/10/30 13:09:42;;;;;;;10.32;6.70;;;;;;;;;;5103705;27;20031;-62
2023/10/30 13:12:08;;;;;;;12.57;7.88;;;;;;;;;;5109284;27;20076;-63
2023/10/30 13:14:34;;;;;;;11.57;7.18;;;;;;;;;;5113942;27;20023;-64
2023/10/30 13:17:01;;;;;;;10.63;7.15;;;;;;;;;;5113851;27;20060;-64
2023/10/30 13:19:27;;;;;;;15.43;8.23;;;;;;;;;;5107577;27;20031;-63
2023/10/30 13:21:53;;;;;;;12.82;8.23;;;;;;;;;;5108700;27;20051;-63
2023/10/30 13:24:19;;;;;;;12.90;8.18;;;;;;;;;;5092806;27;20031;-65
2023/10/30 13:26:45;;;;;;;13.20;7.28;;;;;;;;;;5111217;27;20130;-63
2023/10/30 13:29:11;;;;;;;10.40;7.00;;;;;;;;;;5109724;27;20376;-62
2023/10/30 13:31:37;;;;;;;13.57;8.00;;;;;;;;;;5119853;27;20109;-64
2023/10/30 13:34:04;;;;;;;9.05;6.55;;;;;;;;;;5094336;27;20031;-62
2023/10/30 13:36:31;;;;;;;10.73;7.38;;;;;;;;;;5086090;27;20026;-62
2023/10/30 13:38:57;;;;;;;7.93;6.60;;;;;;;;;;5104104;27;20113;-62
2023/10/30 13:41:23;;;;;;;6.88;5.65;;;;;;;;;;5111206;27;20047;-62
2023/10/30 13:43:51;;;;;;;9.60;6.03;;;;;;;;;;5112111;27;20654;-63
2023/10/30 13:46:17;;;;;;;8.73;6.22;;;;;;;;;;5122455;27;20075;-62
2023/10/30 13:48:43;;;;;;;10.32;7.13;;;;;;;;;;5109179;27;20073;-63
2023/10/30 13:51:09;;;;;;;9.90;6.05;;;;;;;;;;5098926;27;20116;-62
2023/10/30 13:53:35;;;;;;;5.18;4.68;;;;;;;;;;5087409;28;20392;-63
2023/10/30 13:56:01;;;;;;;7.18;5.63;;;;;;;;;;5116205;27;20019;-62
2023/10/30 13:58:27;;;;;;;7.55;6.10;;;;;;;;;;5105161;27;20027;-63
2023/10/30 14:00:53;;;;;;;6.63;4.93;;;;;;;;;;5114750;27;20376;-63
2023/10/30 14:03:19;;;;;;;6.93;4.80;;;;;;;;;;5091669;28;20027;-62
2023/10/30 14:05:46;;;;;;;8.45;4.30;;;;;;;;;;5108088;27;20031;-63
2023/10/30 14:08:13;;;;;;;5.88;3.85;;;;;;;;;;5113629;27;20023;-63
2023/10/30 14:10:39;;;;;;;5.68;3.60;;;;;;;;;;5113227;28;20035;-63
2023/10/30 14:13:05;;;;;;;4.45;3.50;;;;;;;;;;5088242;28;20493;-62
2023/10/30 14:15:31;;;;;;;5.18;3.67;;;;;;;;;;5092118;28;20032;-62
2023/10/30 14:17:58;;;;;;;6.68;3.72;;;;;;;;;;5110220;28;20037;-64
2023/10/30 14:20:25;;;;;;;9.98;4.65;;;;;;;;;;5111788;27;20137;-62
2023/10/30 14:22:51;;;;;;;8.18;4.30;;;;;;;;;;5108194;27;20031;-62
2023/10/30 14:25:17;;;;;;;6.28;4.65;;;;;;;;;;5109852;27;20508;-63
2023/10/30 14:27:43;;;;;;;7.80;4.28;;;;;;;;;;5092935;27;20126;-66